sensor_id;sensor_type;location;lat;lon;timestamp;P1;durP1;ratioP1;P2;durP2;ratioP2
6499;SDS011;3283;52.330;9.772;2023-02-28T09:19:35;139.37;;;59.80;;
6499;SDS011;3283;52.330;9.772;2023-02-28T09:22:01;113.30;;;56.00;;
6499;SDS011;3283;52.330;9.772;2023-02-28T09:24:26;143.30;;;63.10;;
6499;SDS011;3283;52.330;9.772;2023-02-28T09:26:52;157.10;;;71.07;;
6499;SDS011;3283;52.330;9.772;2023-02-28T09:29:17;163.43;;;68.37;;
6499;SDS011;3283;52.330;9.772;2023-02-28T09:31:43;180.27;;;78.27;;
6499;SDS011;3283;52.330;9.772;2023-02-28T09:34:08;161.97;;;71.00;;
6499;SDS011;3283;52.330;9.772;2023-02-28T09:36:34;153.60;;;66.53;;
6499;SDS011;3283;52.330;9.772;2023-02-28T09:39:02;163.03;;;72.07;;
6499;SDS011;3283;52.330;9.772;2023-02-28T09:41:28;135.67;;;70.60;;
6499;SDS011;3283;52.330;9.772;2023-02-28T09:44:02;135.67;;;70.20;;
6499;SDS011;3283;52.330;9.772;2023-02-28T09:46:33;155.90;;;74.07;;
6499;SDS011;3283;52.330;9.772;2023-02-28T17:45:05;323.98;;;111.45;;
6499;SDS011;3283;52.330;9.772;2023-02-28T17:47:31;234.90;;;78.87;;
6499;SDS011;3283;52.330;9.772;2023-02-28T17:49:56;231.70;;;83.67;;
6499;SDS011;3283;52.330;9.772;2023-02-28T17:52:21;238.33;;;85.47;;
6499;SDS011;3283;52.330;9.772;2023-02-28T17:54:47;222.80;;;81.20;;
6499;SDS011;3283;52.330;9.772;2023-02-28T17:57:14;226.30;;;91.17;;
6499;SDS011;3283;52.330;9.772;2023-02-28T17:59:40;208.73;;;81.07;;
6499;SDS011;3283;52.330;9.772;2023-02-28T18:02:07;197.80;;;76.93;;
6499;SDS011;3283;52.330;9.772;2023-02-28T18:04:34;206.87;;;80.40;;
6499;SDS011;3283;52.330;9.772;2023-02-28T18:06:59;209.97;;;90.67;;
6499;SDS011;3283;52.330;9.772;2023-02-28T18:09:25;225.77;;;91.60;;
6499;SDS011;3283;52.330;9.772;2023-02-28T18:11:52;218.30;;;89.10;;
6499;SDS011;3283;52.330;9.772;2023-02-28T18:14:19;248.87;;;92.80;;
6499;SDS011;3283;52.330;9.772;2023-02-28T18:16:47;220.60;;;87.77;;
6499;SDS011;3283;52.330;9.772;2023-02-28T18:19:13;198.17;;;84.50;;
6499;SDS011;3283;52.330;9.772;2023-02-28T18:21:42;193.73;;;74.50;;
6499;SDS011;3283;52.330;9.772;2023-02-28T18:24:09;183.90;;;77.77;;
6499;SDS011;3283;52.330;9.772;2023-02-28T18:26:36;192.07;;;80.33;;
6499;SDS011;3283;52.330;9.772;2023-02-28T18:29:03;202.47;;;82.50;;
6499;SDS011;3283;52.330;9.772;2023-02-28T18:31:29;217.03;;;81.90;;
6499;SDS011;3283;52.330;9.772;2023-02-28T18:33:56;225.93;;;85.77;;
6499;SDS011;3283;52.330;9.772;2023-02-28T18:36:21;237.40;;;81.70;;
6499;SDS011;3283;52.330;9.772;2023-02-28T18:38:47;185.70;;;79.30;;
6499;SDS011;3283;52.330;9.772;2023-02-28T18:41:14;182.67;;;77.03;;
6499;SDS011;3283;52.330;9.772;2023-02-28T18:43:40;191.00;;;80.80;;
6499;SDS011;3283;52.330;9.772;2023-02-28T18:46:06;161.77;;;78.97;;
6499;SDS011;3283;52.330;9.772;2023-02-28T18:48:33;150.53;;;70.30;;
6499;SDS011;3283;52.330;9.772;2023-02-28T18:51:04;151.90;;;73.67;;
6499;SDS011;3283;52.330;9.772;2023-02-28T18:53:32;162.90;;;73.67;;
6499;SDS011;3283;52.330;9.772;2023-02-28T18:55:59;175.47;;;76.57;;
6499;SDS011;3283;52.330;9.772;2023-02-28T18:58:25;203.63;;;85.97;;
6499;SDS011;3283;52.330;9.772;2023-02-28T19:00:51;202.47;;;83.63;;
6499;SDS011;3283;52.330;9.772;2023-02-28T19:03:17;178.03;;;73.03;;
6499;SDS011;3283;52.330;9.772;2023-02-28T19:05:42;190.43;;;87.77;;
6499;SDS011;3283;52.330;9.772;2023-02-28T19:08:07;195.47;;;87.30;;
6499;SDS011;3283;52.330;9.772;2023-02-28T19:10:33;172.40;;;76.03;;
6499;SDS011;3283;52.330;9.772;2023-02-28T19:12:58;180.03;;;76.33;;
6499;SDS011;3283;52.330;9.772;2023-02-28T19:15:24;190.80;;;80.03;;
6499;SDS011;3283;52.330;9.772;2023-02-28T19:17:49;197.83;;;80.40;;
6499;SDS011;3283;52.330;9.772;2023-02-28T19:20:14;180.43;;;72.63;;
6499;SDS011;3283;52.330;9.772;2023-02-28T19:22:40;166.97;;;74.07;;
6499;SDS011;3283;52.330;9.772;2023-02-28T19:25:06;166.17;;;75.30;;
6499;SDS011;3283;52.330;9.772;2023-02-28T19:27:32;136.23;;;65.77;;
6499;SDS011;3283;52.330;9.772;2023-02-28T19:29:58;158.20;;;73.90;;
6499;SDS011;3283;52.330;9.772;2023-02-28T19:32:24;170.43;;;73.00;;
6499;SDS011;3283;52.330;9.772;2023-02-28T19:34:50;168.17;;;67.87;;
6499;SDS011;3283;52.330;9.772;2023-02-28T19:37:16;172.73;;;69.80;;
6499;SDS011;3283;52.330;9.772;2023-02-28T19:39:44;176.47;;;73.30;;
6499;SDS011;3283;52.330;9.772;2023-02-28T19:42:11;246.40;;;120.30;;
6499;SDS011;3283;52.330;9.772;2023-02-28T19:44:38;205.33;;;75.40;;
6499;SDS011;3283;52.330;9.772;2023-02-28T19:47:05;210.43;;;78.60;;
6499;SDS011;3283;52.330;9.772;2023-02-28T19:49:30;191.10;;;67.47;;
6499;SDS011;3283;52.330;9.772;2023-02-28T19:51:56;202.30;;;71.83;;
6499;SDS011;3283;52.330;9.772;2023-02-28T19:54:22;195.47;;;72.40;;
6499;SDS011;3283;52.330;9.772;2023-02-28T19:56:48;194.97;;;76.77;;
6499;SDS011;3283;52.330;9.772;2023-02-28T19:59:13;229.70;;;92.20;;
6499;SDS011;3283;52.330;9.772;2023-02-28T20:01:39;199.23;;;73.77;;
6499;SDS011;3283;52.330;9.772;2023-02-28T20:04:04;195.23;;;76.30;;
6499;SDS011;3283;52.330;9.772;2023-02-28T20:06:30;206.63;;;73.83;;
6499;SDS011;3283;52.330;9.772;2023-02-28T20:08:57;218.05;;;84.13;;
6499;SDS011;3283;52.330;9.772;2023-02-28T20:11:22;213.67;;;90.23;;
